Time;durP1;ratioP1;P1;durP2;ratioP2;P2;SDS_P1;SDS_P2;PMS_P1;PMS_P2;Temp;Humidity;BMP_temperature;BMP_pressure;BME280_temperature;BME280_humidity;BME280_pressure;Samples;Min_cycle;Max_cycle;Signal;HPM_P1;HPM_P2
2023/06/24 00:02:13;;;;;;;4.40;2.92;;;17.00;99.90;;;;;;4974057;28;20055;-75
2023/06/24 00:04:39;;;;;;;4.63;3.13;;;16.90;99.90;;;;;;4956563;28;20504;-75
2023/06/24 00:07:06;;;;;;;5.03;3.50;;;16.90;99.90;;;;;;4974589;28;20039;-75
2023/06/24 00:09:32;;;;;;;5.43;3.17;;;16.90;99.90;;;;;;4974559;28;20043;-75
2023/06/24 00:11:58;;;;;;;4.85;3.30;;;16.90;99.90;;;;;;4972892;28;20050;-75
2023/06/24 00:14:26;;;;;;;6.15;4.20;;;16.90;99.90;;;;;;4972939;28;20133;-75
2023/06/24 00:16:56;;;;;;;5.68;4.00;;;16.90;99.90;;;;;;4973785;28;20055;-75
2023/06/24 00:19:24;;;;;;;4.70;3.40;;;16.80;99.90;;;;;;4973780;28;20144;-75
2023/06/24 00:21:51;;;;;;;4.50;3.30;;;16.90;99.90;;;;;;4973818;28;20047;-75
2023/06/24 00:24:19;;;;;;;5.00;3.67;;;16.80;99.90;;;;;;4936069;28;1101180;-75
2023/06/24 00:26:46;;;;;;;4.93;4.00;;;16.80;99.90;;;;;;4975148;28;20070;-75
2023/06/24 00:29:11;;;;;;;5.03;3.13;;;16.70;99.90;;;;;;4975418;28;20148;-75
2023/06/24 00:31:37;;;;;;;5.43;3.50;;;16.70;99.90;;;;;;4974670;28;20090;-75
2023/06/24 00:34:04;;;;;;;4.97;3.25;;;16.70;99.90;;;;;;4975427;28;20046;-75
2023/06/24 00:36:31;;;;;;;6.20;3.60;;;16.70;99.90;;;;;;4975404;28;20117;-75
2023/06/24 00:39:03;;;;;;;4.80;3.75;;;16.60;99.90;;;;;;4973606;28;20077;-75
2023/06/24 00:41:34;;;;;;;5.78;4.00;;;16.50;99.90;;;;;;4974572;28;20047;-74
2023/06/24 00:44:01;;;;;;;4.80;3.47;;;16.40;99.90;;;;;;4974613;28;20138;-75
2023/06/24 00:46:28;;;;;;;6.60;3.83;;;16.30;99.90;;;;;;4974349;28;20125;-74
2023/06/24 00:48:57;;;;;;;4.60;3.47;;;16.20;99.90;;;;;;4974430;28;20125;-75
2023/06/24 00:51:29;;;;;;;4.47;3.88;;;16.00;99.90;;;;;;4974212;28;20086;-74
2023/06/24 00:53:55;;;;;;;6.10;3.50;;;16.00;99.90;;;;;;4974477;28;20057;-74
2023/06/24 00:56:23;;;;;;;5.28;3.85;;;15.90;99.90;;;;;;4974398;28;20079;-74
2023/06/24 00:58:50;;;;;;;4.03;3.30;;;15.90;99.90;;;;;;4974369;28;20047;-74
2023/06/24 01:01:16;;;;;;;5.75;3.75;;;15.90;99.90;;;;;;4974414;28;20082;-74
2023/06/24 01:03:41;;;;;;;4.68;3.63;;;15.90;99.90;;;;;;4974892;28;20375;-74
2023/06/24 01:06:09;;;;;;;4.90;3.50;;;15.90;99.90;;;;;;4974221;28;20057;-74
2023/06/24 01:08:35;;;;;;;5.82;3.40;;;15.80;99.90;;;;;;4973175;28;20057;-74
2023/06/24 01:11:01;;;;;;;4.78;3.67;;;15.80;99.90;;;;;;4974249;28;20391;-74
2023/06/24 01:13:26;;;;;;;4.55;3.38;;;15.90;99.90;;;;;;4973220;28;20047;-74
2023/06/24 01:15:52;;;;;;;6.07;3.80;;;15.80;99.90;;;;;;4974812;28;20086;-74
2023/06/24 01:18:32;;;;;;;6.70;3.95;;;15.80;99.90;;;;;;4974505;28;20046;-74
2023/06/24 01:21:43;;;;;;;5.18;3.55;;;15.70;99.90;;;;;;4974772;28;20471;-74
2023/06/24 01:24:29;;;;;;;5.18;3.50;;;15.50;99.90;;;;;;4970331;28;20059;-74
2023/06/24 01:26:58;;;;;;;5.70;3.53;;;15.30;99.90;;;;;;4976272;28;20073;-74
2023/06/24 01:30:02;;;;;;;5.50;2.92;;;15.20;99.90;;;;;;4977602;28;20051;-74
2023/06/24 01:33:10;;;;;;;5.13;3.53;;;15.10;99.90;;;;;;4976998;28;20051;-74
2023/06/24 01:35:38;;;;;;;5.00;3.65;;;15.00;99.90;;;;;;4923945;28;20059;-74
2023/06/24 01:38:08;;;;;;;5.18;3.55;;;14.90;99.90;;;;;;4977728;28;20051;-74
2023/06/24 01:40:44;;;;;;;5.03;3.47;;;14.90;99.90;;;;;;4976444;28;20050;-74
2023/06/24 01:43:11;;;;;;;5.97;3.83;;;14.80;99.90;;;;;;4977939;28;20404;-74
2023/06/24 01:45:47;;;;;;;5.03;3.97;;;14.80;99.90;;;;;;4977777;28;20050;-74
2023/06/24 01:48:22;;;;;;;5.53;3.53;;;14.90;99.90;;;;;;4977382;28;20050;-74
2023/06/24 01:50:57;;;;;;;4.53;3.30;;;14.90;99.90;;;;;;4977642;28;20057;-74
2023/06/24 01:53:24;;;;;;;4.93;3.67;;;14.90;99.90;;;;;;4977646;28;20395;-74
2023/06/24 01:55:52;;;;;;;4.75;3.40;;;14.90;99.90;;;;;;4977153;28;20398;-74
2023/06/24 01:58:19;;;;;;;5.97;3.58;;;15.00;99.90;;;;;;4977896;28;20125;-74
2023/06/24 02:00:45;;;;;;;4.55;3.70;;;14.90;99.90;;;;;;4976092;28;20058;-74
2023/06/24 02:03:11;;;;;;;5.20;3.90;;;14.90;99.90;;;;;;4977213;28;20054;-74
2023/06/24 02:05:40;;;;;;;6.43;4.05;;;14.90;99.90;;;;;;4977390;28;20113;-74
2023/06/24 02:08:08;;;;;;;4.95;3.90;;;14.90;99.90;;;;;;4976887;28;20047;-74
2023/06/24 02:10:38;;;;;;;5.60;3.50;;;14.90;99.90;;;;;;4977676;28;20051;-74
2023/06/24 02:13:05;;;;;;;4.57;3.63;;;14.80;99.90;;;;;;4975765;28;20117;-74
2023/06/24 02:15:33;;;;;;;7.78;4.28;;;14.80;99.90;;;;;;4975792;28;20109;-75
2023/06/24 02:17:59;;;;;;;7.10;4.25;;;14.70;99.90;;;;;;4977245;28;20050;-75
2023/06/24 02:20:29;;;;;;;6.50;4.40;;;14.60;99.90;;;;;;4975522;28;20042;-74
2023/06/24 02:22:56;;;;;;;7.93;4.55;;;14.60;99.90;;;;;;4976605;28;20086;-74
2023/06/24 02:25:24;;;;;;;7.10;4.43;;;14.60;99.90;;;;;;4974895;28;20105;-75
2023/06/24 02:27:51;;;;;;;6.95;4.65;;;14.60;99.90;;;;;;4976491;28;20438;-75
2023/06/24 02:30:17;;;;;;;6.65;4.47;;;14.60;99.90;;;;;;4976509;28;20058;-74
2023/06/24 02:32:43;;;;;;;6.03;4.20;;;14.60;99.90;;;;;;4977015;28;20050;-74
2023/06/24 02:35:08;;;;;;;5.85;4.35;;;14.70;99.90;;;;;;4975413;28;20053;-74
2023/06/24 02:37:34;;;;;;;7.03;4.38;;;14.80;99.90;;;;;;4975158;28;20047;-75
2023/06/24 02:40:01;;;;;;;6.60;4.40;;;14.80;99.90;;;;;;4976268;28;20042;-75
2023/06/24 02:42:27;;;;;;;5.57;3.85;;;14.70;99.90;;;;;;4976272;28;20054;-74
2023/06/24 02:44:53;;;;;;;5.57;3.95;;;14.80;99.90;;;;;;4974974;28;20050;-74
2023/06/24 02:47:21;;;;;;;8.10;4.32;;;14.80;99.90;;;;;;4976583;28;20379;-75
2023/06/24 02:49:48;;;;;;;5.65;4.47;;;14.80;99.90;;;;;;4976168;28;20495;-75
2023/06/24 02:52:15;;;;;;;5.68;3.97;;;14.80;99.90;;;;;;4975971;28;20047;-74
2023/06/24 02:54:42;;;;;;;6.00;4.05;;;14.80;99.90;;;;;;4975058;28;20054;-74
2023/06/24 02:57:08;;;;;;;5.97;4.00;;;14.80;99.90;;;;;;4975007;28;20061;-75
2023/06/24 02:59:34;;;;;;;7.50;4.30;;;14.80;99.90;;;;;;4975963;28;20113;-74
2023/06/24 03:02:00;;;;;;;6.00;4.32;;;14.80;99.90;;;;;;4976107;28;20472;-75
2023/06/24 03:04:26;;;;;;;6.90;4.20;;;14.80;99.90;;;;;;4976129;28;20138;-74
2023/06/24 03:06:53;;;;;;;7.75;4.75;;;14.90;99.90;;;;;;4976462;28;20133;-75
2023/06/24 03:09:18;;;;;;;6.15;3.90;;;15.00;99.90;;;;;;4975327;28;20085;-74
2023/06/24 03:11:44;;;;;;;5.72;4.32;;;15.00;99.90;;;;;;4973646;28;20047;-75
2023/06/24 03:14:11;;;;;;;6.47;4.68;;;15.10;99.90;;;;;;4974393;28;20055;-74
2023/06/24 03:16:40;;;;;;;6.25;4.57;;;15.20;99.90;;;;;;4975588;28;20054;-74
2023/06/24 03:19:06;;;;;;;6.45;4.22;;;15.30;99.90;;;;;;4976275;28;20137;-74
2023/06/24 03:21:32;;;;;;;5.68;4.20;;;15.30;99.90;;;;;;4958274;28;20125;-74
2023/06/24 03:23:58;;;;;;;5.43;4.05;;;15.20;99.90;;;;;;4975430;28;20058;-73
2023/06/24 03:26:38;;;;;;;8.38;4.75;;;15.20;99.90;;;;;;4975453;28;20094;-74
2023/06/24 03:29:04;;;;;;;7.30;4.50;;;15.20;99.90;;;;;;4975724;28;20488;-74
2023/06/24 03:31:30;;;;;;;8.15;4.80;;;15.30;99.90;;;;;;4975794;28;20082;-74
2023/06/24 03:33:55;;;;;;;6.22;4.38;;;15.40;99.90;;;;;;4975195;28;20144;-74
2023/06/24 03:36:21;;;;;;;6.53;4.70;;;15.50;99.90;;;;;;4975187;28;20490;-74
2023/06/24 03:38:47;;;;;;;6.68;4.35;;;15.50;99.90;;;;;;4975325;28;20053;-74
2023/06/24 03:41:13;;;;;;;7.20;4.45;;;15.50;99.90;;;;;;4974310;28;20154;-75
2023/06/24 03:43:39;;;;;;;5.22;4.03;;;15.50;99.90;;;;;;4973987;28;20375;-74
2023/06/24 03:46:05;;;;;;;6.70;4.47;;;15.50;99.90;;;;;;4974051;28;20047;-74
2023/06/24 03:48:30;;;;;;;6.63;4.13;;;15.50;99.90;;;;;;4974659;28;20049;-74
2023/06/24 03:50:56;;;;;;;6.78;4.80;;;15.50;99.90;;;;;;4974678;28;20046;-74
2023/06/24 03:53:22;;;;;;;6.45;4.20;;;15.50;99.90;;;;;;4973971;28;20055;-75
2023/06/24 03:55:48;;;;;;;6.85;5.13;;;15.50;99.90;;;;;;4975813;28;20450;-75
2023/06/24 03:58:13;;;;;;;6.95;4.43;;;15.50;99.90;;;;;;4974879;28;20047;-75
2023/06/24 04:00:40;;;;;;;6.43;4.38;;;15.60;99.90;;;;;;4974031;28;20420;-75
2023/06/24 04:03:09;;;;;;;6.57;4.50;;;15.60;99.90;;;;;;4974589;28;20492;-75
2023/06/24 04:05:35;;;;;;;6.15;4.45;;;15.60;99.90;;;;;;4974553;28;20485;-75
2023/06/24 04:08:00;;;;;;;6.70;4.43;;;15.60;99.90;;;;;;4973625;28;20129;-75
2023/06/24 04:10:26;;;;;;;6.13;4.60;;;15.60;99.90;;;;;;4974910;28;20100;-74
2023/06/24 04:12:52;;;;;;;6.43;5.07;;;15.60;99.90;;;;;;4975051;28;20495;-74
2023/06/24 04:15:17;;;;;;;7.70;4.38;;;15.70;99.90;;;;;;4975284;28;20468;-75
2023/06/24 04:17:43;;;;;;;9.45;4.90;;;15.70;99.90;;;;;;4974834;28;20399;-74
2023/06/24 04:20:09;;;;;;;6.88;4.82;;;15.70;99.90;;;;;;4974776;28;20050;-75
2023/06/24 04:22:40;;;;;;;6.93;5.00;;;15.80;99.90;;;;;;4974462;28;20062;-75
2023/06/24 04:25:06;;;;;;;7.65;4.80;;;15.80;99.90;;;;;;4974775;28;20146;-75
2023/06/24 04:27:33;;;;;;;6.45;4.43;;;15.80;99.90;;;;;;4973539;28;20082;-75
2023/06/24 04:29:59;;;;;;;7.97;5.05;;;15.90;99.90;;;;;;4974646;28;20051;-75
2023/06/24 04:32:25;;;;;;;8.13;4.40;;;16.00;99.90;;;;;;4974652;28;20050;-75
2023/06/24 04:34:50;;;;;;;5.93;4.38;;;16.10;99.90;;;;;;4974564;28;20055;-75
2023/06/24 04:37:16;;;;;;;8.85;4.95;;;16.10;99.90;;;;;;4974271;28;20046;-75
2023/06/24 04:39:43;;;;;;;7.50;5.10;;;16.20;99.90;;;;;;4974493;28;20133;-75
2023/06/24 04:42:09;;;;;;;6.35;4.70;;;16.30;99.90;;;;;;4975298;28;20062;-75
2023/06/24 04:44:35;;;;;;;7.70;4.90;;;16.40;99.90;;;;;;4974534;28;20073;-76
2023/06/24 04:47:01;;;;;;;6.70;4.55;;;16.50;99.90;;;;;;4974042;28;20046;-75
2023/06/24 04:49:26;;;;;;;8.30;4.65;;;16.60;99.90;;;;;;4974493;28;20089;-75
2023/06/24 04:51:52;;;;;;;5.93;4.80;;;16.80;99.90;;;;;;4974571;28;20051;-75
2023/06/24 04:54:18;;;;;;;8.45;4.85;;;16.90;99.90;;;;;;4974423;28;20047;-75
2023/06/24 04:56:45;;;;;;;9.15;4.70;;;17.00;99.90;;;;;;4974336;28;20050;-75
2023/06/24 04:59:10;;;;;;;6.82;4.90;;;17.10;99.90;;;;;;4974462;28;20059;-75
2023/06/24 05:01:36;;;;;;;6.00;4.25;;;17.20;99.90;;;;;;4975882;28;20050;-75
2023/06/24 05:04:02;;;;;;;5.75;4.25;;;17.30;99.90;;;;;;4978083;28;20455;-75
2023/06/24 05:06:28;;;;;;;7.53;5.03;;;17.40;99.90;;;;;;4977535;28;20396;-75
2023/06/24 05:08:53;;;;;;;6.57;4.53;;;17.50;99.90;;;;;;4976725;28;20046;-76
2023/06/24 05:11:19;;;;;;;8.13;5.10;;;17.70;99.90;;;;;;4977941;28;20097;-75
2023/06/24 05:13:45;;;;;;;5.82;4.63;;;17.70;99.90;;;;;;4976746;28;20491;-75
2023/06/24 05:16:10;;;;;;;8.45;5.10;;;17.80;99.90;;;;;;4977771;28;20050;-75
2023/06/24 05:18:36;;;;;;;6.97;5.03;;;17.90;99.90;;;;;;4976807;28;20137;-75
2023/06/24 05:21:02;;;;;;;7.22;5.28;;;18.10;99.90;;;;;;4977811;28;20101;-77
2023/06/24 05:23:27;;;;;;;7.97;5.28;;;18.10;99.90;;;;;;4977716;28;20113;-77
2023/06/24 05:25:53;;;;;;;7.10;5.28;;;18.20;99.90;;;;;;4976416;28;20395;-78
2023/06/24 05:28:19;;;;;;;7.50;5.38;;;18.30;99.90;;;;;;4977658;28;20121;-79
2023/06/24 05:30:45;;;;;;;9.02;5.78;;;18.40;99.90;;;;;;4978166;28;20529;-77
2023/06/24 05:33:11;;;;;;;9.07;5.75;;;18.40;99.90;;;;;;4977607;28;20134;-78
2023/06/24 05:35:40;;;;;;;8.15;6.15;;;18.40;99.90;;;;;;4977487;28;20133;-76
2023/06/24 05:38:06;;;;;;;7.63;6.47;;;18.50;99.90;;;;;;4977413;28;20100;-78
2023/06/24 05:40:32;;;;;;;7.75;6.15;;;18.50;99.90;;;;;;4977342;28;20046;-77
2023/06/24 05:42:57;;;;;;;8.02;6.35;;;18.50;99.90;;;;;;4976122;28;20051;-77
2023/06/24 05:45:23;;;;;;;8.27;5.68;;;18.60;99.90;;;;;;4977763;28;20054;-75
2023/06/24 05:47:49;;;;;;;8.77;5.80;;;18.70;99.90;;;;;;4977886;28;20207;-76
2023/06/24 05:50:14;;;;;;;8.68;6.25;;;18.70;99.90;;;;;;4976067;28;20042;-76
2023/06/24 05:52:40;;;;;;;9.93;6.13;;;18.80;99.90;;;;;;4977648;28;20391;-76
2023/06/24 05:55:06;;;;;;;7.10;5.32;;;18.90;99.90;;;;;;4977130;28;20054;-78
2023/06/24 05:57:32;;;;;;;8.00;5.68;;;19.00;99.90;;;;;;4977140;28;20499;-75
2023/06/24 05:59:58;;;;;;;7.40;5.20;;;19.10;99.90;;;;;;4977286;28;20491;-77
2023/06/24 06:02:24;;;;;;;8.73;5.75;;;19.20;99.90;;;;;;4976943;28;20042;-76
2023/06/24 06:04:50;;;;;;;7.43;5.55;;;19.20;99.90;;;;;;4978018;28;20054;-76
2023/06/24 06:07:16;;;;;;;7.50;5.45;;;19.40;99.90;;;;;;4975708;28;20126;-76
2023/06/24 06:09:42;;;;;;;8.02;5.30;;;19.40;99.90;;;;;;4976884;28;20078;-77
2023/06/24 06:12:08;;;;;;;8.68;6.05;;;19.50;99.90;;;;;;4959673;28;20054;-77
2023/06/24 06:14:33;;;;;;;5.85;4.50;;;19.60;99.90;;;;;;4975894;28;20057;-78
2023/06/24 06:16:59;;;;;;;7.15;5.03;;;19.80;99.90;;;;;;4975550;28;20042;-76
2023/06/24 06:19:25;;;;;;;7.95;4.53;;;19.90;99.90;;;;;;4975825;28;20051;-76
2023/06/24 06:21:51;;;;;;;8.25;5.00;;;20.00;99.90;;;;;;4975592;28;20090;-76
2023/06/24 06:24:17;;;;;;;7.50;4.65;;;20.10;99.90;;;;;;4977062;28;20400;-76
2023/06/24 06:26:44;;;;;;;5.97;4.43;;;20.20;99.90;;;;;;4975648;28;20051;-76
2023/06/24 06:29:11;;;;;;;5.97;4.60;;;20.30;99.90;;;;;;4959672;28;20046;-77
2023/06/24 06:31:37;;;;;;;7.68;4.80;;;20.40;99.90;;;;;;4976711;28;20057;-77
2023/06/24 06:34:03;;;;;;;6.38;4.78;;;20.40;99.90;;;;;;4976447;28;20110;-66
2023/06/24 06:36:29;;;;;;;6.32;5.05;;;20.50;99.90;;;;;;4976382;28;20126;-66
2023/06/24 06:38:55;;;;;;;6.85;5.07;;;20.50;99.90;;;;;;4976273;28;20097;-67
2023/06/24 06:41:26;;;;;;;6.93;5.10;;;20.60;99.90;;;;;;4976303;28;20057;-68
2023/06/24 06:43:53;;;;;;;7.40;5.35;;;20.60;99.90;;;;;;4975763;28;20384;-70
2023/06/24 06:46:19;;;;;;;7.30;4.93;;;20.70;99.90;;;;;;4976104;28;20042;-67
2023/06/24 06:48:45;;;;;;;7.47;5.07;;;20.80;99.90;;;;;;4976193;28;20054;-67
2023/06/24 06:51:13;;;;;;;6.00;4.72;;;20.90;99.90;;;;;;4976168;28;20050;-67
2023/06/24 06:53:38;;;;;;;5.38;4.38;;;20.90;99.90;;;;;;4974812;28;20055;-67
2023/06/24 06:56:04;;;;;;;6.25;4.75;;;21.00;99.90;;;;;;4976214;28;20049;-68
2023/06/24 06:58:30;;;;;;;6.57;4.75;;;21.10;99.90;;;;;;4976306;28;20505;-66
2023/06/24 07:00:55;;;;;;;6.25;4.78;;;21.20;99.90;;;;;;4976228;28;20391;-67
2023/06/24 07:03:21;;;;;;;5.70;4.72;;;21.30;99.90;;;;;;4975855;28;20055;-67
2023/06/24 07:05:47;;;;;;;4.78;4.00;;;21.40;99.90;;;;;;4975839;28;20050;-68
2023/06/24 07:08:13;;;;;;;6.63;4.13;;;21.50;99.90;;;;;;4975327;28;20093;-68
2023/06/24 07:10:38;;;;;;;5.78;4.50;;;21.50;99.90;;;;;;4975213;28;20049;-67
2023/06/24 07:13:04;;;;;;;7.00;4.55;;;21.60;99.90;;;;;;4975680;28;20491;-67
2023/06/24 07:15:30;;;;;;;6.30;4.63;;;21.70;99.90;;;;;;4975937;28;20086;-68
2023/06/24 07:17:55;;;;;;;6.72;4.90;;;21.70;99.90;;;;;;4975545;28;20555;-68
2023/06/24 07:20:22;;;;;;;5.65;4.60;;;21.80;99.90;;;;;;4975632;28;20047;-67
2023/06/24 07:22:47;;;;;;;5.53;4.75;;;21.90;99.90;;;;;;4975195;28;20403;-68
2023/06/24 07:25:13;;;;;;;6.18;5.22;;;21.90;99.90;;;;;;4975264;28;20051;-67
2023/06/24 07:27:39;;;;;;;6.80;5.00;;;22.00;99.90;;;;;;4975858;28;20121;-67
2023/06/24 07:30:06;;;;;;;7.40;5.05;;;22.10;99.90;;;;;;4975428;28;20431;-67
2023/06/24 07:32:31;;;;;;;8.63;5.57;;;22.10;99.90;;;;;;4975438;28;20395;-67
2023/06/24 07:34:57;;;;;;;6.90;5.00;;;22.20;99.90;;;;;;4975346;28;20043;-67
2023/06/24 07:37:23;;;;;;;7.65;4.57;;;22.30;99.90;;;;;;4975299;28;20051;-67
2023/06/24 07:39:48;;;;;;;7.32;5.28;;;22.30;99.90;;;;;;4975261;28;20161;-68
2023/06/24 07:42:18;;;;;;;7.03;5.40;;;22.40;99.90;;;;;;4975163;28;20399;-67
2023/06/24 07:44:53;;;;;;;8.25;6.15;;;22.50;99.90;;;;;;4974860;28;20062;-68
2023/06/24 07:47:19;;;;;;;7.22;5.10;;;22.50;99.90;;;;;;4974593;28;20046;-67
2023/06/24 07:49:44;;;;;;;7.60;5.40;;;22.60;99.90;;;;;;4974957;28;20053;-68
2023/06/24 07:52:10;;;;;;;7.20;5.20;;;22.70;99.90;;;;;;4974781;28;20051;-67
2023/06/24 07:54:36;;;;;;;7.85;5.38;;;22.70;99.90;;;;;;4975646;28;20133;-66
2023/06/24 07:57:02;;;;;;;8.52;5.40;;;22.80;99.90;;;;;;4974955;28;20093;-67
2023/06/24 07:59:28;;;;;;;7.57;5.45;;;23.00;99.90;;;;;;4975125;28;20051;-66
2023/06/24 08:01:53;;;;;;;6.70;5.50;;;23.10;99.90;;;;;;4973621;28;20054;-66
2023/06/24 08:04:19;;;;;;;7.15;5.32;;;23.10;99.90;;;;;;4975345;28;20395;-67
2023/06/24 08:06:45;;;;;;;7.60;5.53;;;23.20;99.90;;;;;;4974763;28;20053;-66
2023/06/24 08:09:10;;;;;;;11.75;5.70;;;23.30;99.90;;;;;;4973469;28;20043;-66
2023/06/24 08:11:36;;;;;;;9.82;5.82;;;23.40;99.90;;;;;;4974727;28;20039;-67
2023/06/24 08:14:02;;;;;;;6.88;5.00;;;23.50;99.90;;;;;;4957434;28;20051;-67
2023/06/24 08:16:28;;;;;;;8.05;5.82;;;23.60;99.90;;;;;;4974697;28;20058;-67
2023/06/24 08:18:53;;;;;;;7.03;5.82;;;23.70;99.90;;;;;;4974680;28;20481;-67
2023/06/24 08:21:19;;;;;;;6.93;5.32;;;23.80;99.90;;;;;;4975136;28;20074;-66
2023/06/24 08:23:46;;;;;;;6.90;5.43;;;23.90;99.90;;;;;;4974372;28;20181;-67
2023/06/24 08:26:12;;;;;;;7.65;6.07;;;24.00;99.90;;;;;;4974550;28;20055;-66
2023/06/24 08:28:38;;;;;;;6.60;5.20;;;24.10;99.90;;;;;;4974635;28;20054;-66
2023/06/24 08:31:03;;;;;;;6.93;5.10;;;24.20;99.90;;;;;;4974816;28;20053;-67
2023/06/24 08:33:29;;;;;;;7.43;5.80;;;24.30;99.90;;;;;;4974507;28;20043;-68
2023/06/24 08:35:55;;;;;;;7.60;5.43;;;24.30;99.90;;;;;;4974608;28;20051;-67
2023/06/24 08:38:20;;;;;;;8.00;5.60;;;24.20;99.90;;;;;;4978561;28;20078;-66
2023/06/24 08:40:49;;;;;;;6.72;5.05;;;24.30;99.90;;;;;;4978228;28;20381;-67
2023/06/24 08:43:14;;;;;;;7.93;5.53;;;24.40;99.90;;;;;;4978725;28;20089;-66
2023/06/24 08:45:40;;;;;;;8.73;6.10;;;24.40;99.90;;;;;;4978034;28;20079;-66
2023/06/24 08:48:06;;;;;;;8.48;5.60;;;24.50;99.90;;;;;;4978376;28;20047;-67
2023/06/24 08:50:46;;;;;;;6.75;5.45;;;24.50;99.90;;;;;;4978953;28;20554;-66
2023/06/24 08:53:13;;;;;;;7.88;5.35;;;24.70;99.90;;;;;;4978534;28;20053;-66
2023/06/24 08:55:45;;;;;;;8.27;6.38;;;24.80;99.90;;;;;;4978152;28;20042;-66
2023/06/24 08:58:11;;;;;;;7.93;6.00;;;24.90;99.90;;;;;;4978278;28;20054;-65
2023/06/24 09:00:37;;;;;;;7.90;5.40;;;24.80;99.90;;;;;;4977847;28;20228;-66
2023/06/24 09:03:03;;;;;;;7.68;5.70;;;24.70;99.90;;;;;;4977141;28;20141;-67
2023/06/24 09:05:28;;;;;;;7.65;5.93;;;24.70;99.90;;;;;;4977910;28;20479;-66
2023/06/24 09:07:54;;;;;;;8.40;5.53;;;24.70;99.90;;;;;;4978334;28;20062;-66
2023/06/24 09:10:34;;;;;;;7.38;6.13;;;24.60;99.90;;;;;;4976809;28;20043;-66
2023/06/24 09:13:06;;;;;;;8.40;5.07;;;24.70;99.90;;;;;;4978478;28;20121;-66
2023/06/24 09:15:37;;;;;;;6.68;5.00;;;24.70;99.90;;;;;;4977367;28;20505;-66
2023/06/24 09:18:04;;;;;;;5.05;4.03;;;24.70;99.90;;;;;;4977749;28;20062;-67
2023/06/24 09:20:32;;;;;;;7.82;5.15;;;24.70;99.90;;;;;;4978268;28;20051;-67
2023/06/24 09:22:59;;;;;;;8.13;5.35;;;24.70;99.90;;;;;;4977573;28;20065;-67
2023/06/24 09:25:24;;;;;;;5.93;3.90;;;24.60;99.90;;;;;;4977574;28;20061;-66
2023/06/24 09:27:52;;;;;;;5.35;4.00;;;24.80;99.90;;;;;;4977389;28;20047;-66
2023/06/24 09:30:22;;;;;;;4.25;2.90;;;24.80;99.90;;;;;;4977540;28;20051;-66
2023/06/24 09:32:49;;;;;;;6.95;3.55;;;24.90;99.90;;;;;;4976875;28;20047;-65
2023/06/24 09:35:19;;;;;;;6.00;3.05;;;25.00;99.90;;;;;;4977441;28;20046;-65
2023/06/24 09:37:52;;;;;;;7.03;3.90;;;25.20;99.90;;;;;;4977512;28;20149;-65
2023/06/24 09:40:19;;;;;;;7.15;4.60;;;25.30;99.90;;;;;;4977362;28;20057;-66
2023/06/24 09:42:50;;;;;;;6.80;4.88;;;25.50;99.90;;;;;;4977450;28;20148;-67
2023/06/24 09:45:20;;;;;;;6.28;4.50;;;25.60;99.90;;;;;;4977120;28;20467;-67
2023/06/24 09:47:45;;;;;;;6.28;4.05;;;25.60;99.90;;;;;;4976898;28;20054;-67
2023/06/24 09:50:11;;;;;;;7.57;4.32;;;25.70;99.90;;;;;;4976340;28;20038;-67
2023/06/24 09:52:38;;;;;;;8.07;4.78;;;25.70;99.90;;;;;;4975923;28;20046;-69
2023/06/24 09:55:05;;;;;;;5.18;3.78;;;25.80;99.90;;;;;;4976306;28;20127;-67
2023/06/24 09:57:34;;;;;;;5.70;3.80;;;25.80;99.90;;;;;;4977133;28;20482;-66
2023/06/24 10:00:01;;;;;;;8.40;4.00;;;25.90;99.90;;;;;;4977392;28;20360;-66
2023/06/24 10:02:30;;;;;;;5.03;3.58;;;26.00;99.90;;;;;;4977545;28;20057;-67
2023/06/24 10:04:56;;;;;;;5.60;4.13;;;26.10;99.90;;;;;;4977350;28;20050;-67
2023/06/24 10:07:22;;;;;;;5.50;4.28;;;26.20;99.90;;;;;;4975665;28;20035;-67
2023/06/24 10:09:48;;;;;;;6.90;4.10;;;26.20;99.90;;;;;;4976759;28;20352;-68
2023/06/24 10:12:14;;;;;;;5.82;4.00;;;26.30;99.90;;;;;;4977414;28;20043;-67
2023/06/24 10:14:40;;;;;;;6.18;3.58;;;26.40;99.90;;;;;;4977585;28;20039;-66
2023/06/24 10:17:06;;;;;;;5.25;3.47;;;26.40;99.90;;;;;;4976147;28;20471;-67
2023/06/24 10:19:39;;;;;;;4.82;3.92;;;26.40;99.90;;;;;;4977269;28;20125;-68
2023/06/24 10:22:09;;;;;;;7.30;4.30;;;26.60;99.90;;;;;;4977377;28;20043;-67
2023/06/24 10:24:37;;;;;;;6.60;3.67;;;26.60;99.90;;;;;;4975509;28;20121;-66
2023/06/24 10:27:38;;;;;;;5.82;3.42;;;26.60;99.90;;;;;;4976520;28;20484;-67
2023/06/24 10:30:04;;;;;;;5.38;4.07;;;26.70;99.90;;;;;;4974777;28;20109;-67
2023/06/24 10:32:41;;;;;;;5.35;3.42;;;26.80;99.90;;;;;;4975340;28;20479;-68
2023/06/24 10:35:07;;;;;;;4.75;3.60;;;26.90;99.90;;;;;;4976503;28;20057;-68
2023/06/24 10:37:33;;;;;;;4.95;3.10;;;27.00;99.90;;;;;;4977171;28;20035;-67
2023/06/24 10:40:00;;;;;;;4.30;2.75;;;27.10;99.90;;;;;;4976367;28;20387;-68
2023/06/24 10:42:38;;;;;;;4.43;2.88;;;27.20;99.90;;;;;;4976419;28;20383;-68
2023/06/24 10:45:09;;;;;;;3.30;2.35;;;27.10;99.90;;;;;;4976838;28;20049;-68
2023/06/24 10:47:40;;;;;;;3.65;2.75;;;26.90;99.90;;;;;;4976653;28;20047;-68
2023/06/24 10:50:07;;;;;;;6.40;3.50;;;27.00;99.90;;;;;;4977000;28;20047;-68
2023/06/24 10:52:46;;;;;;;6.03;3.50;;;27.00;99.90;;;;;;4976098;28;20043;-68
2023/06/24 10:55:17;;;;;;;4.68;3.08;;;27.10;99.90;;;;;;4976080;28;20047;-68
2023/06/24 10:57:43;;;;;;;3.70;2.72;;;27.40;99.90;;;;;;4975670;28;20486;-68
2023/06/24 11:00:11;;;;;;;5.07;2.60;;;27.60;99.90;;;;;;4975148;28;20049;-67
2023/06/24 11:02:37;;;;;;;4.85;3.03;;;27.70;99.90;;;;;;4976505;28;20057;-67
2023/06/24 11:05:04;;;;;;;3.85;2.80;;;27.70;99.90;;;;;;4975196;28;20038;-68
2023/06/24 11:07:34;;;;;;;3.25;2.55;;;27.80;99.90;;;;;;4975472;28;20475;-67
2023/06/24 11:10:06;;;;;;;4.70;3.38;;;27.80;99.90;;;;;;4975869;28;20082;-68
2023/06/24 11:12:37;;;;;;;4.03;2.92;;;27.80;99.90;;;;;;4976544;28;20035;-68
2023/06/24 11:15:07;;;;;;;3.38;2.50;;;27.50;99.90;;;;;;4959720;28;20047;-67
2023/06/24 11:17:35;;;;;;;4.05;2.95;;;27.30;99.90;;;;;;4974636;28;20062;-67
2023/06/24 11:20:02;;;;;;;3.28;2.45;;;27.40;99.90;;;;;;4975283;28;20578;-69
2023/06/24 11:22:28;;;;;;;4.03;2.60;;;27.60;99.90;;;;;;4974381;28;20061;-69
2023/06/24 11:24:54;;;;;;;4.38;3.10;;;27.90;99.90;;;;;;4976128;28;20058;-69
2023/06/24 11:27:28;;;;;;;3.45;2.42;;;28.00;99.90;;;;;;4975353;28;20484;-69
2023/06/24 11:29:55;;;;;;;3.83;2.80;;;28.00;99.90;;;;;;4974699;28;20475;-69
2023/06/24 11:32:22;;;;;;;3.63;2.75;;;27.70;99.90;;;;;;4975264;28;20054;-67
2023/06/24 11:34:48;;;;;;;3.75;2.50;;;27.50;99.90;;;;;;4975403;28;20050;-67
2023/06/24 11:37:16;;;;;;;3.60;2.50;;;27.50;99.90;;;;;;4975314;28;20038;-67
2023/06/24 11:39:42;;;;;;;4.05;2.72;;;27.40;99.90;;;;;;4975013;28;20475;-67
2023/06/24 11:42:09;;;;;;;4.22;2.70;;;27.40;99.90;;;;;;4975269;28;20042;-69
2023/06/24 11:44:35;;;;;;;3.30;2.33;;;27.60;99.90;;;;;;4975968;28;20379;-69
2023/06/24 11:47:08;;;;;;;4.43;2.33;;;27.70;99.90;;;;;;4975970;28;20086;-68
2023/06/24 11:49:53;;;;;;;4.22;2.35;;;27.80;99.90;;;;;;4975365;28;20047;-68
2023/06/24 11:52:19;;;;;;;3.58;2.70;;;28.00;99.90;;;;;;4975146;28;20061;-67
2023/06/24 11:54:45;;;;;;;3.58;2.60;;;28.30;99.90;;;;;;4975363;28;20115;-66
2023/06/24 11:57:12;;;;;;;4.07;2.47;;;28.50;99.90;;;;;;4975104;28;20050;-68
2023/06/24 11:59:38;;;;;;;3.47;2.28;;;28.50;99.90;;;;;;4974582;28;20153;-67
2023/06/24 12:02:04;;;;;;;4.18;2.30;;;28.10;99.90;;;;;;4974407;28;20098;-68
2023/06/24 12:04:35;;;;;;;3.75;2.22;;;27.90;99.90;;;;;;4974752;28;20049;-70
2023/06/24 12:07:00;;;;;;;3.08;2.20;;;28.10;99.90;;;;;;4974430;28;20558;-67
2023/06/24 12:09:26;;;;;;;4.22;2.47;;;28.60;99.90;;;;;;4974872;28;20081;-68
2023/06/24 12:11:52;;;;;;;4.35;2.50;;;28.90;99.90;;;;;;4975007;28;20050;-69
2023/06/24 12:14:18;;;;;;;3.95;2.50;;;28.90;99.90;;;;;;4975249;28;20121;-69
2023/06/24 12:16:44;;;;;;;3.10;2.40;;;28.70;99.90;;;;;;4974687;28;20053;-69
2023/06/24 12:19:11;;;;;;;3.33;2.38;;;28.40;99.90;;;;;;4975282;28;20051;-69
2023/06/24 12:21:37;;;;;;;3.10;2.25;;;28.20;99.90;;;;;;4974960;28;20086;-68
2023/06/24 12:24:04;;;;;;;3.00;2.10;;;28.30;99.90;;;;;;4974559;28;20053;-69
2023/06/24 12:26:31;;;;;;;4.20;2.30;;;28.60;99.90;;;;;;4974670;28;20046;-69
2023/06/24 12:28:57;;;;;;;3.33;2.10;;;28.80;99.90;;;;;;4974740;28;20053;-69
2023/06/24 12:31:24;;;;;;;3.38;2.20;;;28.80;99.90;;;;;;4974534;28;20058;-69
2023/06/24 12:33:51;;;;;;;4.05;2.33;;;28.60;99.90;;;;;;4974583;28;20096;-69
2023/06/24 12:36:16;;;;;;;3.85;2.10;;;28.40;99.90;;;;;;4975104;28;20146;-69
2023/06/24 12:38:42;;;;;;;2.85;2.05;;;28.50;99.90;;;;;;4974491;28;20472;-69
2023/06/24 12:41:08;;;;;;;3.25;2.20;;;28.80;99.90;;;;;;4974384;28;20471;-68
2023/06/24 12:43:34;;;;;;;4.95;2.15;;;28.80;99.90;;;;;;4974532;28;20046;-68
2023/06/24 12:45:59;;;;;;;3.20;1.90;;;28.50;99.90;;;;;;4974330;28;20082;-68
2023/06/24 12:48:26;;;;;;;3.50;2.20;;;28.20;99.90;;;;;;4974439;28;20055;-68